createdAt,value
2023-09-09T00:00:40.383Z,9.43
2023-09-09T00:03:08.333Z,9.30
2023-09-09T00:05:35.315Z,8.90
2023-09-09T00:08:02.154Z,8.88
2023-09-09T00:10:31.085Z,8.55
2023-09-09T00:13:01.041Z,10.20
2023-09-09T00:15:27.917Z,9.63
2023-09-09T00:17:54.732Z,9.30
2023-09-09T00:20:33.505Z,8.75
2023-09-09T00:23:01.370Z,9.18
2023-09-09T00:25:28.086Z,9.40
2023-09-09T00:27:55.376Z,9.10
2023-09-09T00:30:22.124Z,9.27
2023-09-09T00:32:48.950Z,9.55
2023-09-09T00:35:15.851Z,8.95
2023-09-09T00:37:42.757Z,8.40
2023-09-09T00:40:09.933Z,8.40
2023-09-09T00:42:36.724Z,8.77
2023-09-09T00:45:03.971Z,9.05
2023-09-09T00:47:31.309Z,9.20
2023-09-09T00:49:59.630Z,9.10
2023-09-09T00:52:27.704Z,8.32
2023-09-09T00:54:54.827Z,8.65
2023-09-09T00:57:21.646Z,9.35
2023-09-09T00:59:49.038Z,8.63
2023-09-09T01:02:16.212Z,8.18
2023-09-09T01:04:43.219Z,9.10
2023-09-09T01:07:10.300Z,9.60
2023-09-09T01:09:37.515Z,8.20
2023-09-09T01:12:06.614Z,8.52
2023-09-09T01:14:33.615Z,8.68
2023-09-09T01:17:01.057Z,8.30
2023-09-09T01:19:28.743Z,8.60
2023-09-09T01:22:01.850Z,8.95
2023-09-09T01:24:28.785Z,8.15
2023-09-09T01:26:55.525Z,9.00
2023-09-09T01:29:23.368Z,8.90
2023-09-09T01:31:50.148Z,8.38
2023-09-09T01:34:16.862Z,8.45
2023-09-09T01:36:43.723Z,8.70
2023-09-09T01:39:10.635Z,8.43
2023-09-09T01:41:37.387Z,8.85
2023-09-09T01:44:04.536Z,8.15
2023-09-09T01:46:31.541Z,9.38
2023-09-09T01:48:58.941Z,8.55
2023-09-09T01:51:27.613Z,9.02
2023-09-09T01:53:54.353Z,8.73
2023-09-09T01:56:21.209Z,9.38
2023-09-09T01:58:47.934Z,9.07
2023-09-09T02:01:14.678Z,9.20
2023-09-09T02:03:41.911Z,8.98
2023-09-09T02:06:09.118Z,9.18
2023-09-09T02:08:35.977Z,9.32
2023-09-09T02:11:02.726Z,9.43
2023-09-09T02:13:29.631Z,9.45
2023-09-09T02:16:06.986Z,8.95
2023-09-09T02:18:35.141Z,9.82
2023-09-09T02:21:01.915Z,8.38
2023-09-09T02:23:28.872Z,8.80
2023-09-09T02:25:56.244Z,8.90
2023-09-09T02:28:24.742Z,9.40
2023-09-09T02:30:51.484Z,9.40
2023-09-09T02:33:18.353Z,8.05
2023-09-09T02:35:45.623Z,9.27
2023-09-09T02:38:12.503Z,9.20
2023-09-09T02:40:39.198Z,9.30
2023-09-09T02:43:05.930Z,9.93
2023-09-09T02:45:32.732Z,9.05
2023-09-09T02:47:59.593Z,9.43
2023-09-09T02:50:26.498Z,9.63
2023-09-09T02:52:53.217Z,9.35
2023-09-09T02:55:20.228Z,10.25
2023-09-09T02:57:50.713Z,9.10
2023-09-09T03:00:18.411Z,9.07
2023-09-09T03:02:46.722Z,9.13
2023-09-09T03:05:14.465Z,9.02
2023-09-09T03:07:41.193Z,8.48
2023-09-09T03:10:09.263Z,8.75
2023-09-09T03:12:36.075Z,8.80
2023-09-09T03:15:06.855Z,9.48
2023-09-09T03:17:33.847Z,10.02
2023-09-09T03:20:00.850Z,8.68
2023-09-09T03:22:27.634Z,8.68
2023-09-09T03:24:54.440Z,9.32
2023-09-09T03:27:22.444Z,8.55
2023-09-09T03:29:49.674Z,9.55
2023-09-09T03:32:16.682Z,9.27
2023-09-09T03:34:44.452Z,8.68
2023-09-09T03:37:11.235Z,8.57
2023-09-09T03:39:38.124Z,8.85
2023-09-09T03:42:05.284Z,8.27
2023-09-09T03:44:32.262Z,9.23
2023-09-09T03:46:59.021Z,8.35
2023-09-09T03:49:26.973Z,9.00
2023-09-09T03:51:53.791Z,8.65
2023-09-09T03:54:20.566Z,8.20
2023-09-09T03:56:47.484Z,9.00
2023-09-09T03:59:14.257Z,9.20
2023-09-09T04:01:41.254Z,8.95
2023-09-09T04:04:08.102Z,8.80
2023-09-09T04:06:34.916Z,8.63
2023-09-09T04:09:01.860Z,8.43
2023-09-09T04:11:28.805Z,8.10
2023-09-09T04:13:55.733Z,8.60
2023-09-09T04:16:22.592Z,8.02
2023-09-09T04:18:49.481Z,8.00
2023-09-09T04:21:18.268Z,8.18
2023-09-09T04:23:45.024Z,7.75
2023-09-09T04:26:11.791Z,8.68
2023-09-09T04:28:39.257Z,8.05
2023-09-09T04:31:06.121Z,8.52
2023-09-09T04:33:35.560Z,8.20
2023-09-09T04:36:03.253Z,8.65
2023-09-09T04:38:31.191Z,8.02
2023-09-09T04:40:58.682Z,9.20
2023-09-09T04:43:25.640Z,9.48
2023-09-09T04:45:52.599Z,9.88
2023-09-09T04:48:19.487Z,9.55
2023-09-09T04:50:46.886Z,10.02
2023-09-09T04:53:13.773Z,9.93
2023-09-09T04:55:40.937Z,10.40
2023-09-09T04:58:11.497Z,9.98
2023-09-09T05:00:38.526Z,9.50
2023-09-09T05:03:05.870Z,9.25
2023-09-09T05:05:32.812Z,10.82
2023-09-09T05:07:59.776Z,9.52
2023-09-09T05:10:28.594Z,9.35
2023-09-09T05:12:55.909Z,9.48
2023-09-09T05:15:22.865Z,9.27
2023-09-09T05:17:50.076Z,9.45
2023-09-09T05:20:17.133Z,8.77
2023-09-09T05:22:43.924Z,8.07
2023-09-09T05:25:10.800Z,8.25
2023-09-09T05:27:37.651Z,8.52
2023-09-09T05:30:06.337Z,8.65
2023-09-09T05:32:33.402Z,8.30
2023-09-09T05:35:00.244Z,8.10
2023-09-09T05:37:27.896Z,8.02
2023-09-09T05:39:54.791Z,7.45
2023-09-09T05:42:21.779Z,7.15
2023-09-09T05:44:48.739Z,8.52
2023-09-09T05:47:15.748Z,7.85
2023-09-09T05:49:42.519Z,8.43
2023-09-09T05:52:10.542Z,7.40
2023-09-09T05:54:37.447Z,8.77
2023-09-09T05:57:05.709Z,8.63
2023-09-09T05:59:33.589Z,8.02
2023-09-09T06:02:00.677Z,7.80
2023-09-09T06:04:27.583Z,7.72
2023-09-09T06:06:54.459Z,8.00
2023-09-09T06:09:21.339Z,7.03
2023-09-09T06:11:50.134Z,7.53
2023-09-09T06:14:16.964Z,7.82
2023-09-09T06:16:43.808Z,8.70
2023-09-09T06:19:10.645Z,8.25
2023-09-09T06:21:37.532Z,7.30
2023-09-09T06:24:04.963Z,7.95
2023-09-09T06:26:35.045Z,8.13
2023-09-09T06:29:02.551Z,8.20
2023-09-09T06:31:29.708Z,8.50
2023-09-09T06:33:57.437Z,8.30
2023-09-09T06:36:24.396Z,8.45
2023-09-09T06:38:52.776Z,8.50
2023-09-09T06:41:19.640Z,7.80
2023-09-09T06:43:46.535Z,8.60
2023-09-09T06:46:13.420Z,9.20
2023-09-09T06:48:40.156Z,8.77
2023-09-09T06:51:06.921Z,9.00
2023-09-09T06:53:34.128Z,9.55
2023-09-09T06:56:00.987Z,8.77
2023-09-09T06:58:27.850Z,8.30
2023-09-09T07:00:54.735Z,8.95
2023-09-09T07:03:22.427Z,8.15
2023-09-09T07:05:49.822Z,8.43
2023-09-09T07:08:16.673Z,9.20
2023-09-09T07:10:53.820Z,8.57
2023-09-09T07:13:24.937Z,9.65
2023-09-09T07:15:55.378Z,9.05
2023-09-09T07:18:23.120Z,8.30
2023-09-09T07:20:50.308Z,9.77
2023-09-09T07:23:18.254Z,8.75
2023-09-09T07:25:45.623Z,8.52
2023-09-09T07:28:12.574Z,8.95
2023-09-09T07:30:39.543Z,8.95
2023-09-09T07:33:06.381Z,9.80
2023-09-09T07:35:37.157Z,9.20
2023-09-09T07:38:07.877Z,8.67
2023-09-09T07:40:35.391Z,8.95
2023-09-09T07:43:02.865Z,10.02
2023-09-09T07:45:29.980Z,9.00
2023-09-09T07:47:57.992Z,9.20
2023-09-09T07:50:26.009Z,8.73
2023-09-09T07:52:52.752Z,8.77
2023-09-09T07:55:19.498Z,9.30
2023-09-09T07:57:46.269Z,8.73
2023-09-09T08:00:14.827Z,8.82
2023-09-09T08:02:41.909Z,8.13
2023-09-09T08:05:09.490Z,9.32
2023-09-09T08:07:36.344Z,9.63
2023-09-09T08:10:03.967Z,8.95
2023-09-09T08:12:30.779Z,8.60
2023-09-09T08:15:08.730Z,9.32
2023-09-09T08:17:35.915Z,9.07
2023-09-09T08:20:08.198Z,8.90
2023-09-09T08:22:35.864Z,9.57
2023-09-09T08:25:03.577Z,8.77
2023-09-09T08:27:30.527Z,8.85
2023-09-09T08:29:58.399Z,8.05
2023-09-09T08:32:25.614Z,7.93
2023-09-09T08:34:53.664Z,8.65
2023-09-09T08:37:20.541Z,9.27
2023-09-09T08:39:47.506Z,8.25
2023-09-09T08:42:51.886Z,8.85
2023-09-09T08:45:32.554Z,9.30
2023-09-09T08:48:04.748Z,9.50
2023-09-09T08:50:34.565Z,8.52
2023-09-09T08:53:03.850Z,9.68
2023-09-09T08:55:30.965Z,8.85
2023-09-09T08:57:57.811Z,8.85
2023-09-09T09:00:33.539Z,8.65
2023-09-09T09:03:04.868Z,8.70
2023-09-09T09:08:01.020Z,7.53
2023-09-09T09:10:28.214Z,9.82
2023-09-09T09:12:55.000Z,9.30
2023-09-09T09:15:22.945Z,8.13
2023-09-09T09:17:49.882Z,8.40
2023-09-09T09:20:26.649Z,9.25
2023-09-09T09:22:57.373Z,8.40
2023-09-09T09:25:24.860Z,7.75
2023-09-09T09:27:51.664Z,7.35
2023-09-09T09:30:28.938Z,7.35
2023-09-09T09:32:57.128Z,7.97
2023-09-09T09:35:24.354Z,8.10
2023-09-09T09:38:02.754Z,8.77
2023-09-09T09:40:31.393Z,10.23
2023-09-09T09:42:58.362Z,9.80
2023-09-09T09:45:29.650Z,10.27
2023-09-09T09:50:31.680Z,10.82
2023-09-09T09:53:04.109Z,10.45
2023-09-09T09:55:32.865Z,9.15
2023-09-09T09:58:09.199Z,9.50
2023-09-09T10:00:36.031Z,8.32
2023-09-09T10:03:03.947Z,8.02
2023-09-09T10:05:31.107Z,7.95
2023-09-09T10:08:06.435Z,7.63
2023-09-09T10:10:36.569Z,6.93
2023-09-09T10:13:10.193Z,7.90
2023-09-09T10:15:38.182Z,7.72
2023-09-09T10:18:06.828Z,7.50
2023-09-09T10:20:35.451Z,7.68
2023-09-09T10:23:04.890Z,7.53
2023-09-09T10:25:32.125Z,7.43
2023-09-09T10:27:59.340Z,7.03
2023-09-09T10:30:28.613Z,7.30
2023-09-09T10:32:59.357Z,7.57
2023-09-09T10:35:26.191Z,7.68
2023-09-09T10:37:56.193Z,8.23
2023-09-09T10:40:24.170Z,13.75
2023-09-09T10:42:52.470Z,8.20
2023-09-09T10:45:29.743Z,8.38
2023-09-09T10:48:07.283Z,8.35
2023-09-09T10:50:49.030Z,7.93
2023-09-09T10:53:31.503Z,9.27
2023-09-09T10:56:14.347Z,8.60
2023-09-09T10:58:41.149Z,8.07
2023-09-09T11:01:08.404Z,8.27
2023-09-09T11:03:52.471Z,8.15
2023-09-09T11:06:37.498Z,7.90
2023-09-09T11:09:04.331Z,7.65
2023-09-09T11:11:36.805Z,9.02
2023-09-09T11:14:05.570Z,10.57
2023-09-09T11:16:40.793Z,9.57
2023-09-09T11:19:12.841Z,7.30
2023-09-09T11:21:44.690Z,7.30
2023-09-09T11:24:12.070Z,8.68
2023-09-09T11:26:40.237Z,7.75
2023-09-09T11:29:14.862Z,8.55
2023-09-09T11:31:48.953Z,7.38
2023-09-09T11:34:16.224Z,7.68
2023-09-09T11:36:44.804Z,8.40
2023-09-09T11:39:12.642Z,7.65
2023-09-09T11:41:39.466Z,14.02
2023-09-09T11:44:08.671Z,8.52
2023-09-09T11:46:49.673Z,6.88
2023-09-09T11:49:20.382Z,7.00
2023-09-09T11:51:47.613Z,6.53
2023-09-09T11:54:20.894Z,7.10
2023-09-09T11:56:48.266Z,6.32
2023-09-09T11:59:15.155Z,6.10
2023-09-09T12:01:43.647Z,6.30
2023-09-09T12:04:12.377Z,6.15
2023-09-09T12:06:42.759Z,5.85
2023-09-09T12:09:09.964Z,5.57
2023-09-09T12:11:37.528Z,5.93
2023-09-09T12:14:05.172Z,6.32
2023-09-09T12:16:33.718Z,5.75
2023-09-09T12:19:00.503Z,6.00
2023-09-09T12:21:27.368Z,5.63
2023-09-09T12:23:59.562Z,5.93
2023-09-09T12:26:26.814Z,6.65
2023-09-09T12:29:11.396Z,6.70
2023-09-09T12:32:10.751Z,5.90
2023-09-09T12:34:37.922Z,5.07
2023-09-09T12:37:04.744Z,4.85
2023-09-09T12:39:32.020Z,5.22
2023-09-09T12:42:06.894Z,4.70
2023-09-09T12:44:47.932Z,4.65
2023-09-09T12:47:21.042Z,4.45
2023-09-09T12:49:48.021Z,5.07
2023-09-09T12:52:14.949Z,4.68
2023-09-09T12:54:41.746Z,5.22
2023-09-09T12:57:08.619Z,5.20
2023-09-09T12:59:35.378Z,5.07
2023-09-09T13:02:02.766Z,4.80
2023-09-09T13:04:29.515Z,4.85
2023-09-09T13:06:56.419Z,5.10
2023-09-09T13:09:23.620Z,12.82
2023-09-09T13:11:50.563Z,16.80
2023-09-09T13:14:25.355Z,11.45
2023-09-09T13:16:54.915Z,5.30
2023-09-09T13:19:22.574Z,5.65
2023-09-09T13:21:49.754Z,9.20
2023-09-09T13:24:16.572Z,7.38
2023-09-09T13:26:43.377Z,6.95
2023-09-09T13:29:10.873Z,4.95
2023-09-09T13:31:37.842Z,4.95
2023-09-09T13:34:04.744Z,4.97
2023-09-09T13:36:31.653Z,5.30
2023-09-09T13:38:58.449Z,4.90
2023-09-09T13:41:29.753Z,4.95
2023-09-09T13:43:56.794Z,5.47
2023-09-09T13:46:23.788Z,8.07
2023-09-09T13:48:50.542Z,10.00
2023-09-09T13:51:17.438Z,6.00
2023-09-09T13:53:44.450Z,5.22
2023-09-09T13:56:11.716Z,5.05
2023-09-09T13:58:38.487Z,6.10
2023-09-09T14:01:05.366Z,5.40
2023-09-09T14:03:32.271Z,5.47
2023-09-09T14:05:59.709Z,5.13
2023-09-09T14:08:26.975Z,5.47
2023-09-09T14:10:54.713Z,5.70
2023-09-09T14:13:21.533Z,5.30
2023-09-09T14:15:48.941Z,4.80
2023-09-09T14:18:16.016Z,5.10
2023-09-09T14:20:44.448Z,11.18
2023-09-09T14:23:11.887Z,22.90
2023-09-09T14:25:38.940Z,14.48
2023-09-09T14:28:06.569Z,6.15
2023-09-09T14:30:33.948Z,5.65
2023-09-09T14:33:00.785Z,5.10
2023-09-09T14:35:27.653Z,5.50
2023-09-09T14:37:54.365Z,5.57
2023-09-09T14:40:21.139Z,5.00
2023-09-09T14:42:47.889Z,4.75
2023-09-09T14:45:14.714Z,4.85
2023-09-09T14:47:41.565Z,5.15
2023-09-09T14:50:08.793Z,4.75
2023-09-09T14:52:35.572Z,4.95
2023-09-09T14:55:02.864Z,5.20
2023-09-09T14:57:29.805Z,5.00
2023-09-09T14:59:56.564Z,4.93
2023-09-09T15:02:23.351Z,5.53
2023-09-09T15:04:50.527Z,5.35
2023-09-09T15:07:20.178Z,4.97
2023-09-09T15:09:48.270Z,5.10
2023-09-09T15:12:15.052Z,4.75
2023-09-09T15:14:41.827Z,4.75
2023-09-09T15:17:08.604Z,5.00
2023-09-09T15:19:35.510Z,5.00
2023-09-09T15:22:02.559Z,5.18
2023-09-09T15:24:29.284Z,5.05
2023-09-09T15:26:55.984Z,4.63
2023-09-09T15:29:22.694Z,4.43
2023-09-09T15:31:49.476Z,4.18
2023-09-09T15:34:16.285Z,4.65
2023-09-09T15:36:43.041Z,3.90
2023-09-09T15:39:12.748Z,4.15
2023-09-09T15:41:41.829Z,4.05
2023-09-09T15:44:08.957Z,3.95
2023-09-09T15:46:35.770Z,4.15
2023-09-09T15:49:02.487Z,3.90
2023-09-09T15:51:29.235Z,3.88
2023-09-09T15:53:55.915Z,4.38
2023-09-09T15:56:25.260Z,3.97
2023-09-09T15:58:52.549Z,4.15
2023-09-09T16:01:19.598Z,4.03
2023-09-09T16:03:46.453Z,3.70
2023-09-09T16:06:13.214Z,3.97
2023-09-09T16:08:41.163Z,3.90
2023-09-09T16:11:08.351Z,4.70
2023-09-09T16:13:35.203Z,4.10
2023-09-09T16:16:07.456Z,4.55
2023-09-09T16:18:36.439Z,3.97
2023-09-09T16:21:03.620Z,4.15
2023-09-09T16:23:30.641Z,3.60
2023-09-09T16:25:57.750Z,3.90
2023-09-09T16:28:25.623Z,3.55
2023-09-09T16:30:52.424Z,3.75
2023-09-09T16:33:19.321Z,3.83
2023-09-09T16:35:46.981Z,3.75
2023-09-09T16:38:13.933Z,3.63
2023-09-09T16:40:40.786Z,3.67
2023-09-09T16:43:07.750Z,3.92
2023-09-09T16:45:34.535Z,3.85
2023-09-09T16:48:04.937Z,3.53
2023-09-09T16:50:31.840Z,3.70
2023-09-09T16:52:58.840Z,3.47
2023-09-09T16:55:25.884Z,3.75
2023-09-09T16:57:52.649Z,3.55
2023-09-09T17:00:19.560Z,4.13
2023-09-09T17:02:46.346Z,4.10
2023-09-09T17:05:13.151Z,4.00
2023-09-09T17:07:39.928Z,3.60
2023-09-09T17:10:07.315Z,3.45
2023-09-09T17:12:33.977Z,3.90
2023-09-09T17:15:00.719Z,4.05
2023-09-09T17:17:27.461Z,3.80
2023-09-09T17:19:54.458Z,3.53
2023-09-09T17:22:21.251Z,4.03
2023-09-09T17:24:49.601Z,4.10
2023-09-09T17:27:16.334Z,3.42
2023-09-09T17:29:43.990Z,3.72
2023-09-09T17:32:11.039Z,3.65
2023-09-09T17:34:43.163Z,3.90
2023-09-09T17:37:10.601Z,3.75
2023-09-09T17:39:37.426Z,3.78
2023-09-09T17:42:04.554Z,3.60
2023-09-09T17:44:31.367Z,3.35
2023-09-09T17:46:58.659Z,3.85
2023-09-09T17:49:27.181Z,3.75
2023-09-09T17:51:55.374Z,3.47
2023-09-09T17:54:26.436Z,3.35
2023-09-09T17:56:55.430Z,3.53
2023-09-09T17:59:22.538Z,3.58
2023-09-09T18:01:49.971Z,3.70
2023-09-09T18:04:17.553Z,4.30
2023-09-09T18:06:44.430Z,4.00
2023-09-09T18:09:11.201Z,3.60
2023-09-09T18:11:37.944Z,3.45
2023-09-09T18:14:04.806Z,3.30
2023-09-09T18:16:32.639Z,3.65
2023-09-09T18:18:59.884Z,4.10
2023-09-09T18:21:26.733Z,3.30
2023-09-09T18:23:53.901Z,4.18
2023-09-09T18:26:20.986Z,4.05
2023-09-09T18:28:48.518Z,3.80
2023-09-09T18:31:15.602Z,4.13
2023-09-09T18:33:42.690Z,4.28
2023-09-09T18:36:09.518Z,3.80
2023-09-09T18:38:36.943Z,3.92
2023-09-09T18:41:04.418Z,4.80
2023-09-09T18:43:31.404Z,4.00
2023-09-09T18:45:59.644Z,3.90
2023-09-09T18:48:27.250Z,4.85
2023-09-09T18:50:53.974Z,4.32
2023-09-09T18:53:21.127Z,4.63
2023-09-09T18:55:48.195Z,4.88
2023-09-09T18:58:15.082Z,5.13
2023-09-09T19:00:42.054Z,4.60
2023-09-09T19:03:09.132Z,4.75
2023-09-09T19:05:36.442Z,4.68
2023-09-09T19:08:03.829Z,5.10
2023-09-09T19:10:30.686Z,5.43
2023-09-09T19:12:57.368Z,5.38
2023-09-09T19:15:24.651Z,5.03
2023-09-09T19:17:51.743Z,5.68
2023-09-09T19:20:18.790Z,5.03
2023-09-09T19:22:48.202Z,5.70
2023-09-09T19:25:15.250Z,4.57
2023-09-09T19:27:42.561Z,5.50
2023-09-09T19:30:09.758Z,5.38
2023-09-09T19:32:36.814Z,5.65
2023-09-09T19:35:04.228Z,5.30
2023-09-09T19:37:30.979Z,6.10
2023-09-09T19:40:01.614Z,5.88
2023-09-09T19:42:29.316Z,5.32
2023-09-09T19:44:56.889Z,6.03
2023-09-09T19:47:25.909Z,6.70
2023-09-09T19:49:54.288Z,6.57
2023-09-09T19:52:21.410Z,7.03
2023-09-09T19:54:48.278Z,7.00
2023-09-09T19:57:15.126Z,6.38
2023-09-09T19:59:41.961Z,5.95
2023-09-09T20:02:08.789Z,6.22
2023-09-09T20:04:35.789Z,6.75
2023-09-09T20:07:02.488Z,6.22
2023-09-09T20:09:29.208Z,5.95
2023-09-09T20:11:55.986Z,5.68
2023-09-09T20:14:22.913Z,5.32
2023-09-09T20:16:49.675Z,5.30
2023-09-09T20:19:16.538Z,4.50
2023-09-09T20:21:43.253Z,4.88
2023-09-09T20:24:09.983Z,4.68
2023-09-09T20:26:36.697Z,4.95
2023-09-09T20:29:03.469Z,4.97
2023-09-09T20:31:30.398Z,4.78
2023-09-09T20:33:57.138Z,5.00
2023-09-09T20:36:24.731Z,5.28
2023-09-09T20:38:51.500Z,5.10
2023-09-09T20:41:18.215Z,5.57
2023-09-09T20:43:45.001Z,5.95
2023-09-09T20:46:12.916Z,6.68
2023-09-09T20:48:40.256Z,6.28
2023-09-09T20:51:07.218Z,6.30
2023-09-09T20:53:36.889Z,6.20
2023-09-09T20:56:11.613Z,6.05
2023-09-09T20:58:41.403Z,6.45
2023-09-09T21:01:09.436Z,5.45
2023-09-09T21:03:36.650Z,5.72
2023-09-09T21:06:03.683Z,6.55
2023-09-09T21:08:30.512Z,6.18
2023-09-09T21:10:57.265Z,6.13
2023-09-09T21:13:24.426Z,5.57
2023-09-09T21:15:51.501Z,5.47
2023-09-09T21:18:18.722Z,6.00
2023-09-09T21:20:46.022Z,5.60
2023-09-09T21:23:13.810Z,5.88
2023-09-09T21:25:43.401Z,5.38
2023-09-09T21:28:10.129Z,6.70
2023-09-09T21:30:38.020Z,6.82
2023-09-09T21:33:06.500Z,7.05
2023-09-09T21:35:33.652Z,8.38
2023-09-09T21:38:00.462Z,7.90
2023-09-09T21:40:27.318Z,7.47
2023-09-09T21:42:54.239Z,6.90
2023-09-09T21:45:23.955Z,6.88
2023-09-09T21:47:51.253Z,7.07
2023-09-09T21:50:18.081Z,6.78
2023-09-09T21:52:44.794Z,7.15
2023-09-09T21:55:11.524Z,6.38
2023-09-09T21:57:38.280Z,6.30
2023-09-09T22:00:20.105Z,6.38
2023-09-09T22:05:14.427Z,7.43
2023-09-09T22:07:41.283Z,8.77
2023-09-09T22:10:09.038Z,10.63
2023-09-09T22:12:38.042Z,12.13
2023-09-09T22:15:07.379Z,12.13
2023-09-09T22:17:35.431Z,7.75
2023-09-09T22:20:06.111Z,7.10
2023-09-09T22:22:32.991Z,6.22
2023-09-09T22:24:59.729Z,6.00
2023-09-09T22:27:26.685Z,7.22
2023-09-09T22:29:56.809Z,23.60
2023-09-09T22:32:23.680Z,16.00
2023-09-09T22:34:55.342Z,7.10
2023-09-09T22:37:23.934Z,6.72
2023-09-09T22:39:51.692Z,6.18
2023-09-09T22:42:18.378Z,6.45
2023-09-09T22:44:45.124Z,6.53
2023-09-09T22:47:11.954Z,6.60
2023-09-09T22:49:40.544Z,6.88
2023-09-09T22:52:08.573Z,6.68
2023-09-09T22:54:35.908Z,6.55
2023-09-09T22:57:02.815Z,15.75
2023-09-09T22:59:29.579Z,31.38
2023-09-09T23:01:56.416Z,27.25
2023-09-09T23:04:23.260Z,11.23
2023-09-09T23:06:51.177Z,9.35
2023-09-09T23:09:18.167Z,8.35
2023-09-09T23:11:44.912Z,7.07
2023-09-09T23:14:11.656Z,9.00
2023-09-09T23:16:39.036Z,10.05
2023-09-09T23:19:07.985Z,12.65
2023-09-09T23:21:35.548Z,18.23
2023-09-09T23:24:04.999Z,21.98
2023-09-09T23:26:31.816Z,9.45
2023-09-09T23:28:58.898Z,8.77
2023-09-09T23:31:26.012Z,8.63
2023-09-09T23:33:52.773Z,7.50
2023-09-09T23:36:19.495Z,7.72
2023-09-09T23:38:46.250Z,8.10
2023-09-09T23:41:13.047Z,8.18
2023-09-09T23:43:39.908Z,10.32
2023-09-09T23:46:06.774Z,7.53
2023-09-09T23:48:33.779Z,8.13
2023-09-09T23:51:01.563Z,7.22
2023-09-09T23:53:29.189Z,6.75
2023-09-09T23:55:58.832Z,7.40
2023-09-09T23:58:25.670Z,6.57
